createdAt,value
2023-05-02T00:03:21.926Z,99686.91
2023-05-02T00:07:25.102Z,99702.03
2023-05-02T00:11:29.496Z,99708.22
2023-05-02T00:15:32.589Z,99694.06
2023-05-02T00:19:39.531Z,99692.25
2023-05-02T00:23:42.596Z,99699.31
2023-05-02T00:27:47.404Z,99694.00
2023-05-02T00:31:50.459Z,99694.84
2023-05-02T00:35:53.501Z,99691.34
2023-05-02T00:39:57.351Z,99699.31
2023-05-02T00:44:02.110Z,99700.31
2023-05-02T00:48:05.814Z,99703.91
2023-05-02T00:52:09.767Z,99704.84
2023-05-02T00:56:13.122Z,99708.50
2023-05-02T01:00:17.661Z,99713.84
2023-05-02T01:04:33.578Z,99713.91
2023-05-02T01:08:46.025Z,99712.19
2023-05-02T01:12:55.992Z,99719.25
2023-05-02T01:17:06.415Z,99721.91
2023-05-02T01:21:11.172Z,99724.56
2023-05-02T01:25:23.750Z,99726.34
2023-05-02T01:29:30.689Z,99728.19
2023-05-02T01:33:36.303Z,99722.88
2023-05-02T01:37:40.627Z,99735.25
2023-05-02T01:41:45.048Z,99726.47
2023-05-02T01:45:53.178Z,99734.44
2023-05-02T01:49:58.695Z,99723.88
2023-05-02T01:54:05.704Z,99734.50
2023-05-02T01:58:09.063Z,99731.91
2023-05-02T02:02:15.781Z,99738.09
2023-05-02T02:06:22.526Z,99737.22
2023-05-02T02:10:29.142Z,99736.31
2023-05-02T02:14:37.758Z,99743.38
2023-05-02T02:18:46.635Z,99744.25
2023-05-02T02:22:50.970Z,99746.06
2023-05-02T02:26:54.043Z,99746.91
2023-05-02T02:30:57.438Z,99744.25
2023-05-02T02:35:03.076Z,99742.53
2023-05-02T02:39:24.615Z,99746.06
2023-05-02T02:43:34.973Z,99749.66
2023-05-02T02:47:45.199Z,99745.25
2023-05-02T02:51:57.834Z,99741.75
2023-05-02T02:56:08.264Z,99738.22
2023-05-02T03:00:17.787Z,99741.78
2023-05-02T03:04:24.293Z,99740.94
2023-05-02T03:08:28.798Z,99744.53
2023-05-02T03:12:32.067Z,99752.47
2023-05-02T03:16:39.747Z,99753.44
2023-05-02T03:20:47.022Z,99754.31
2023-05-02T03:24:52.256Z,99772.88
2023-05-02T03:28:55.638Z,99772.91
2023-05-02T03:33:07.911Z,99778.19
2023-05-02T03:37:13.014Z,99784.44
2023-05-02T03:41:17.694Z,99783.56
2023-05-02T03:45:21.262Z,99787.09
2023-05-02T03:49:27.006Z,99794.19
2023-05-02T03:53:31.621Z,99807.47
2023-05-02T03:57:37.064Z,99802.19
2023-05-02T04:01:41.367Z,99810.16
2023-05-02T04:05:46.350Z,99808.38
2023-05-02T04:09:51.754Z,99819.81
2023-05-02T04:13:56.267Z,99816.19
2023-05-02T04:18:00.339Z,99817.97
2023-05-02T04:22:06.279Z,99831.16
2023-05-02T04:26:13.835Z,99837.28
2023-05-02T04:30:34.293Z,99836.38
2023-05-02T04:34:43.544Z,99836.38
2023-05-02T04:38:47.528Z,99846.00
2023-05-02T04:42:52.834Z,99845.91
2023-05-02T04:47:00.280Z,99849.38
2023-05-02T04:51:03.636Z,99852.88
2023-05-02T04:55:08.521Z,99861.75
2023-05-02T04:59:12.761Z,99862.59
2023-05-02T05:03:17.458Z,99868.75
2023-05-02T05:07:20.778Z,99863.44
2023-05-02T05:11:26.830Z,99871.34
2023-05-02T05:15:30.356Z,99876.63
2023-05-02T05:19:37.641Z,99880.13
2023-05-02T05:23:45.884Z,99892.41
2023-05-02T05:27:52.556Z,99888.78
2023-05-02T05:31:56.613Z,99897.53
2023-05-02T05:36:06.877Z,99893.88
2023-05-02T05:40:10.808Z,99909.66
2023-05-02T05:44:15.813Z,99901.69
2023-05-02T05:48:20.508Z,99900.72
2023-05-02T05:52:25.168Z,99906.81
2023-05-02T05:56:30.700Z,99898.78
2023-05-02T06:00:42.393Z,99905.81
2023-05-02T06:04:46.138Z,99911.13
2023-05-02T06:08:52.912Z,99917.31
2023-05-02T06:12:56.527Z,99912.03
2023-05-02T06:17:04.464Z,99915.53
2023-05-02T06:21:07.879Z,99913.69
2023-05-02T06:25:13.402Z,99916.25
2023-05-02T06:29:16.445Z,99917.09
2023-05-02T06:33:19.606Z,99928.47
2023-05-02T06:37:22.763Z,99928.25
2023-05-02T06:41:27.230Z,99929.78
2023-05-02T06:45:30.277Z,99930.44
2023-05-02T06:49:33.295Z,99931.09
2023-05-02T06:53:36.562Z,99943.34
2023-05-02T06:57:41.633Z,99939.72
2023-05-02T07:01:45.380Z,99946.66
2023-05-02T07:05:48.391Z,99950.91
2023-05-02T07:09:51.468Z,99944.53
2023-05-02T07:13:55.921Z,99955.81
2023-05-02T07:17:59.001Z,99959.97
2023-05-02T07:22:02.111Z,99957.06
2023-05-02T07:26:06.408Z,99963.16
2023-05-02T07:30:11.983Z,99961.31
2023-05-02T07:34:14.997Z,99968.41
2023-05-02T07:38:18.113Z,99971.88
2023-05-02T07:42:21.101Z,99984.31
2023-05-02T07:46:25.728Z,99989.63
2023-05-02T07:50:28.877Z,99988.72
2023-05-02T07:54:31.937Z,99992.19
2023-05-02T07:58:36.168Z,99995.63
2023-05-02T08:02:40.686Z,99995.66
2023-05-02T08:06:45.755Z,100012.47
2023-05-02T08:10:51.266Z,100008.97
2023-05-02T08:14:54.348Z,100014.34
2023-05-02T08:18:58.713Z,100009.91
2023-05-02T08:23:01.730Z,100012.53
2023-05-02T08:27:04.935Z,100015.09
2023-05-02T08:31:08.113Z,100011.28
2023-05-02T08:35:12.650Z,100013.88
2023-05-02T08:39:17.075Z,100013.75
2023-05-02T08:43:20.842Z,100017.09
2023-05-02T08:47:26.887Z,100020.53
2023-05-02T08:51:32.627Z,100020.50
2023-05-02T08:55:40.023Z,100021.28
2023-05-02T08:59:43.974Z,100023.06
2023-05-02T09:03:48.753Z,100021.38
2023-05-02T09:07:53.523Z,100026.72
2023-05-02T09:11:56.689Z,100013.47
2023-05-02T09:16:01.435Z,100011.63
2023-05-02T09:20:04.967Z,100007.22
2023-05-02T09:24:18.335Z,100011.69
2023-05-02T09:28:21.534Z,100019.72
2023-05-02T09:32:47.330Z,100028.53
2023-05-02T09:36:54.088Z,100036.41
2023-05-02T09:40:59.003Z,100028.34
2023-05-02T09:45:02.340Z,100029.13
2023-05-02T09:49:05.490Z,100038.81
2023-05-02T09:53:11.287Z,100052.88
2023-05-02T09:57:15.822Z,100048.38
2023-05-02T10:01:20.478Z,100049.09
2023-05-02T10:05:23.814Z,100046.22
2023-05-02T10:09:27.592Z,100051.41
2023-05-02T10:13:34.929Z,100056.69
2023-05-02T10:17:46.171Z,100058.34
2023-05-02T10:21:49.603Z,100049.47
2023-05-02T10:25:53.290Z,100036.97
2023-05-02T10:29:59.888Z,100023.66
2023-05-02T10:34:04.937Z,100027.09
2023-05-02T10:38:08.509Z,100036.81
2023-05-02T10:42:11.718Z,100031.41
2023-05-02T10:46:36.032Z,100039.22
2023-05-02T10:50:47.351Z,100043.75
2023-05-02T10:54:50.412Z,100042.81
2023-05-02T10:58:54.403Z,100043.63
2023-05-02T11:02:59.222Z,100045.44
2023-05-02T11:07:19.314Z,100042.81
2023-05-02T11:11:43.643Z,100051.03
2023-05-02T11:16:00.335Z,100048.44
2023-05-02T11:20:32.399Z,100056.44
2023-05-02T11:24:39.312Z,100053.72
2023-05-02T11:28:48.383Z,100056.38
2023-05-02T11:33:16.253Z,100068.88
2023-05-02T11:37:22.343Z,100065.25
2023-05-02T11:41:39.292Z,100061.66
2023-05-02T11:45:43.825Z,100055.31
2023-05-02T11:49:46.983Z,100048.03
2023-05-02T11:53:51.541Z,100054.84
2023-05-02T11:57:54.631Z,100060.09
2023-05-02T12:01:58.176Z,100051.94
2023-05-02T12:06:12.529Z,100055.16
2023-05-02T12:10:17.451Z,100053.97
2023-05-02T12:14:28.329Z,100043.06
2023-05-02T12:18:31.636Z,100050.81
2023-05-02T12:22:35.101Z,100055.88
2023-05-02T12:26:39.541Z,100047.63
2023-05-02T12:30:42.660Z,100058.31
2023-05-02T12:34:47.668Z,100055.53
2023-05-02T12:38:53.300Z,100059.97
2023-05-02T12:43:04.246Z,100060.78
2023-05-02T12:47:08.262Z,100065.19
2023-05-02T12:51:22.577Z,100057.28
2023-05-02T12:55:27.368Z,100066.03
2023-05-02T12:59:32.896Z,100068.59
2023-05-02T13:03:36.001Z,100062.38
2023-05-02T13:07:39.235Z,100074.88
2023-05-02T13:11:42.590Z,100069.53
2023-05-02T13:15:47.120Z,100075.88
2023-05-02T13:20:00.744Z,100081.47
2023-05-02T13:24:05.870Z,100075.38
2023-05-02T13:28:08.917Z,100076.19
2023-05-02T13:32:13.461Z,100079.16
2023-05-02T13:36:16.486Z,100080.31
2023-05-02T13:40:19.580Z,100078.72
2023-05-02T13:44:23.506Z,100070.88
2023-05-02T13:48:27.932Z,100068.34
2023-05-02T13:52:31.065Z,100078.88
2023-05-02T13:56:34.153Z,100079.03
2023-05-02T14:00:37.341Z,100072.94
2023-05-02T14:04:41.836Z,100087.22
2023-05-02T14:08:45.176Z,100077.59
2023-05-02T14:12:48.259Z,100076.72
2023-05-02T14:16:51.556Z,100080.25
2023-05-02T14:20:57.915Z,100079.34
2023-05-02T14:25:01.075Z,100083.13
2023-05-02T14:29:04.594Z,100090.31
2023-05-02T14:33:07.681Z,100085.22
2023-05-02T14:37:12.200Z,100096.91
2023-05-02T14:41:15.245Z,100088.31
2023-05-02T14:45:18.470Z,100090.06
2023-05-02T14:49:21.491Z,100091.03
2023-05-02T14:53:26.382Z,100083.13
2023-05-02T14:57:29.907Z,100100.84
2023-05-02T15:01:33.097Z,100094.66
2023-05-02T15:05:37.519Z,100100.75
2023-05-02T15:09:42.238Z,100100.69
2023-05-02T15:13:45.285Z,100086.53
2023-05-02T15:17:48.424Z,100089.28
2023-05-02T15:21:53.181Z,100086.66
2023-05-02T15:25:57.650Z,100099.09
2023-05-02T15:30:01.215Z,100090.34
2023-05-02T15:34:04.820Z,100078.19
2023-05-02T15:38:09.122Z,100081.84
2023-05-02T15:42:13.997Z,100074.91
2023-05-02T15:46:17.174Z,100078.59
2023-05-02T15:50:20.635Z,100077.81
2023-05-02T15:54:23.661Z,100092.09
2023-05-02T15:58:28.204Z,100085.94
2023-05-02T16:02:31.564Z,100089.59
2023-05-02T16:06:34.722Z,100087.16
2023-05-02T16:10:40.342Z,100082.00
2023-05-02T16:14:44.903Z,100080.25
2023-05-02T16:18:47.981Z,100082.97
2023-05-02T16:22:51.405Z,100086.63
2023-05-02T16:26:54.428Z,100085.88
2023-05-02T16:30:58.848Z,100095.69
2023-05-02T16:35:02.100Z,100098.47
2023-05-02T16:39:05.304Z,100102.16
2023-05-02T16:43:08.887Z,100096.94
2023-05-02T16:47:13.324Z,100106.69
2023-05-02T16:51:16.695Z,100110.31
2023-05-02T16:55:20.003Z,100112.03
2023-05-02T16:59:23.062Z,100127.19
2023-05-02T17:03:27.837Z,100135.19
2023-05-02T17:07:30.861Z,100142.31
2023-05-02T17:11:34.210Z,100142.34
2023-05-02T17:15:38.573Z,100150.44
2023-05-02T17:19:43.034Z,100153.19
2023-05-02T17:23:46.362Z,100161.19
2023-05-02T17:27:49.469Z,100158.63
2023-05-02T17:31:52.548Z,100165.81
2023-05-02T17:35:57.011Z,100165.84
2023-05-02T17:40:01.353Z,100173.03
2023-05-02T17:44:05.735Z,100181.00
2023-05-02T17:48:08.874Z,100179.28
2023-05-02T17:52:13.415Z,100184.59
2023-05-02T17:56:18.850Z,100190.00
2023-05-02T18:00:22.356Z,100199.94
2023-05-02T18:04:25.591Z,100202.66
2023-05-02T18:08:31.268Z,100206.31
2023-05-02T18:12:34.541Z,100209.97
2023-05-02T18:16:37.625Z,100217.19
2023-05-02T18:20:41.970Z,100224.34
2023-05-02T18:24:46.448Z,100219.97
2023-05-02T18:28:53.324Z,100212.97
2023-05-02T18:32:56.840Z,100220.16
2023-05-02T18:37:01.854Z,100226.47
2023-05-02T18:41:06.236Z,100229.16
2023-05-02T18:45:09.684Z,100243.31
2023-05-02T18:49:12.887Z,100248.63
2023-05-02T18:53:16.391Z,100251.34
2023-05-02T18:57:21.643Z,100251.41
2023-05-02T19:01:25.616Z,100253.16
2023-05-02T19:05:28.917Z,100256.75
2023-05-02T19:09:34.637Z,100266.50
2023-05-02T19:13:39.192Z,100275.38
2023-05-02T19:17:43.447Z,100278.09
2023-05-02T19:21:48.094Z,100286.94
2023-05-02T19:25:51.271Z,100299.34
2023-05-02T19:29:58.087Z,100292.31
2023-05-02T19:34:01.077Z,100296.78
2023-05-02T19:38:04.259Z,100304.75
2023-05-02T19:42:07.466Z,100303.88
2023-05-02T19:46:11.973Z,100308.31
2023-05-02T19:50:15.503Z,100310.97
2023-05-02T19:54:18.572Z,100311.91
2023-05-02T19:58:21.663Z,100315.41
2023-05-02T20:02:26.334Z,100317.16
2023-05-02T20:06:31.498Z,100323.38
2023-05-02T20:10:35.030Z,100328.69
2023-05-02T20:14:38.228Z,100335.78
2023-05-02T20:18:42.603Z,100332.22
2023-05-02T20:22:45.686Z,100336.66
2023-05-02T20:26:48.856Z,100335.78
2023-05-02T20:30:51.889Z,100327.84
2023-05-02T20:34:56.395Z,100327.84
2023-05-02T20:38:59.548Z,100330.53
2023-05-02T20:43:02.572Z,100336.72
2023-05-02T20:47:05.648Z,100347.34
2023-05-02T20:51:10.099Z,100348.25
2023-05-02T20:55:13.144Z,100349.97
2023-05-02T20:59:16.223Z,100349.97
2023-05-02T21:03:19.616Z,100350.84
2023-05-02T21:07:24.090Z,100355.28
2023-05-02T21:11:27.103Z,100351.75
2023-05-02T21:15:30.122Z,100349.13
2023-05-02T21:19:34.122Z,100346.47
2023-05-02T21:23:38.772Z,100343.81
2023-05-02T21:27:41.808Z,100349.13
2023-05-02T21:31:44.885Z,100350.91
2023-05-02T21:35:47.922Z,100350.03
2023-05-02T21:39:52.287Z,100348.25
2023-05-02T21:43:55.296Z,100347.41
2023-05-02T21:47:58.719Z,100349.19
2023-05-02T21:52:01.939Z,100355.41
2023-05-02T21:56:07.578Z,100358.91
2023-05-02T22:00:13.168Z,100357.19
2023-05-02T22:04:18.288Z,100361.56
2023-05-02T22:08:22.068Z,100357.19
2023-05-02T22:12:27.459Z,100358.09
2023-05-02T22:16:30.913Z,100356.31
2023-05-02T22:20:34.038Z,100353.69
2023-05-02T22:24:37.268Z,100352.81
2023-05-02T22:28:41.838Z,100344.84
2023-05-02T22:32:44.897Z,100342.19
2023-05-02T22:36:47.955Z,100350.16
2023-05-02T22:40:50.947Z,100354.53
2023-05-02T22:44:55.356Z,100354.59
2023-05-02T22:48:58.832Z,100353.69
2023-05-02T22:53:03.887Z,100362.53
2023-05-02T22:57:07.384Z,100356.38
2023-05-02T23:01:11.774Z,100361.66
2023-05-02T23:05:36.603Z,100358.13
2023-05-02T23:09:39.620Z,100357.25
2023-05-02T23:13:42.712Z,100358.16
2023-05-02T23:17:47.103Z,100364.31
2023-05-02T23:21:50.173Z,100359.94
2023-05-02T23:25:53.369Z,100360.78
2023-05-02T23:29:56.348Z,100353.75
2023-05-02T23:34:01.529Z,100352.88
2023-05-02T23:38:08.072Z,100354.66
2023-05-02T23:42:11.365Z,100355.53
2023-05-02T23:46:14.413Z,100353.78
2023-05-02T23:50:19.466Z,100359.94
2023-05-02T23:54:22.454Z,100356.44
2023-05-02T23:58:25.562Z,100355.56
